Fort Smith Airport
CYSM : rendu visible

Aérodrome :











RETROUVEZ-NOUS SUR...

 
LOGIN :

S'inscrire | Disclaimer

   EN    FR    IT 

 









Légende :    VFR   VFR Marginal   IFR   IFR Intensif   IFR Très Intensif
Visi : 
Plafond : 
>= 8 km
>= 3000ft
5 à 8 km
1000 à 3000 ft
1500m à 5 km
500 à 1000 ft
800 à 1500m
200 à 500 ft
< 800m
< 200 ft
Symboles :   Orages  Brouillard  Fortes neiges  Fortes précipitations  Vent > 20 kt






- Altitude de l'aérodrome : 671 ft
- Code IATA : YSM


CYSM - Fort Smith

DERNIER METAR :
  • 232000Z 33004KT 290V010 15SM OVC022 M15/M19 A2989 RMK SC8 SLP145

METARs EXPIRÉS :
  • 231900Z 33006KT 15SM OVC022 M15/M19 A2987 RMK SC8 SLP139
  • 231800Z 29003KT 15SM BKN025 OVC060 M16/M19 A2986 RMK SC7SC1 SLP135

TAF TAF CYSM
Valide du 23 à 18h jusqu'au 24 à 06h UTC


231738Z 2318/2406 33003KT P6SM SCT030 BKN080
TEMPO 2318/2321 3SM -SN BKN020 OVC040
FM232100 33005KT 6SM -SN OVC040
TEMPO 2321/2402 2SM -SHSN OVC020
FM240200 33005KT P6SM BKN040
TEMPO 2402/2406 5SM -SN OVC020 RMK NXT FCST BY 240000Z



MET'MAP, la Météo Aéronautique d'un coup d'oeil ! - Copyright ORBIFLY Décembre 2007 - Disclaimer

ORBIFLY MET'MAP TEAM :

Programmation & Développement : Alexandra Zaïnal
Sur une idée originale de : Baudouin d'Aumeries
Assistance à la programmation : Marc-Olivier Méhu
Soutien technique & logistique : Manuel Goepfert

Contact : metmap@orbifly.com




SOURCES & CREDITS :

   NOAA       Earth
Advisory